Time;durP1;ratioP1;P1;durP2;ratioP2;P2;SDS_P1;SDS_P2;PMS_P1;PMS_P2;Temp;Humidity;BMP_temperature;BMP_pressure;BME280_temperature;BME280_humidity;BME280_pressure;Samples;Min_cycle;Max_cycle;Signal;HPM_P1;HPM_P2
2021/12/25 00:01:16;;;;;;;8.80;6.18;;;;;;;;;;5011216;28;20628;-73
2021/12/25 00:03:42;;;;;;;10.85;6.57;;;;;;;;;;5011269;28;20488;-73
2021/12/25 00:06:08;;;;;;;9.35;6.18;;;;;;;;;;5011406;28;20050;-73
2021/12/25 00:08:34;;;;;;;11.13;6.72;;;;;;;;;;5011416;28;20081;-73
2021/12/25 00:11:08;;;;;;;11.32;7.30;;;;;;;;;;5011469;28;20128;-73
2021/12/25 00:13:35;;;;;;;12.75;7.40;;;;;;;;;;5011404;28;20042;-73
2021/12/25 00:16:00;;;;;;;13.15;7.80;;;;;;;;;;5011335;28;20037;-73
2021/12/25 00:18:27;;;;;;;12.85;7.65;;;;;;;;;;5010845;28;20151;-73
2021/12/25 00:20:53;;;;;;;12.65;7.80;;;;;;;;;;5011366;28;20038;-74
2021/12/25 00:23:19;;;;;;;12.57;7.43;;;;;;;;;;5011165;28;20041;-73
2021/12/25 00:25:50;;;;;;;12.82;7.78;;;;;;;;;;5010897;28;20038;-73
2021/12/25 00:31:23;;;;;;;14.38;7.82;;;;;;;;;;5011782;28;20034;-73
2021/12/25 00:33:56;;;;;;;12.95;7.80;;;;;;;;;;5011164;28;20042;-73
2021/12/25 00:36:23;;;;;;;13.55;8.30;;;;;;;;;;5011092;28;20046;-73
2021/12/25 00:38:50;;;;;;;12.30;7.50;;;;;;;;;;5010976;28;20045;-73
2021/12/25 00:41:18;;;;;;;12.48;7.65;;;;;;;;;;5010863;28;20577;-73
2021/12/25 00:43:45;;;;;;;13.45;8.10;;;;;;;;;;5010676;28;20042;-73
2021/12/25 00:46:11;;;;;;;14.07;8.20;;;;;;;;;;5009139;28;20038;-73
2021/12/25 00:48:37;;;;;;;14.07;8.95;;;;;;;;;;5010449;28;20595;-74
2021/12/25 00:51:04;;;;;;;13.52;8.63;;;;;;;;;;5008911;28;20404;-73
2021/12/25 00:53:30;;;;;;;13.25;8.50;;;;;;;;;;5014523;28;20061;-73
2021/12/25 00:55:56;;;;;;;14.35;8.57;;;;;;;;;;5013773;28;20096;-73
2021/12/25 00:58:22;;;;;;;12.65;7.93;;;;;;;;;;5012793;28;20079;-73
2021/12/25 01:00:48;;;;;;;12.27;7.10;;;;;;;;;;5013748;28;20046;-73
2021/12/25 01:03:13;;;;;;;11.27;7.03;;;;;;;;;;5013958;28;20073;-73
2021/12/25 01:05:39;;;;;;;11.15;7.32;;;;;;;;;;5013992;28;20072;-73
2021/12/25 01:08:07;;;;;;;16.38;9.63;;;;;;;;;;5013837;28;20044;-73
2021/12/25 01:10:33;;;;;;;14.40;8.70;;;;;;;;;;5013963;28;20038;-73
2021/12/25 01:13:20;;;;;;;14.25;8.20;;;;;;;;;;5013622;28;20512;-73
2021/12/25 01:16:20;;;;;;;14.35;8.40;;;;;;;;;;5014020;28;20423;-73
2021/12/25 01:26:45;;;;;;;13.82;8.88;;;;;;;;;;4997617;28;20041;-73
2021/12/25 01:31:40;;;;;;;17.92;9.05;;;;;;;;;;4994373;28;20027;-73
2021/12/25 01:36:55;;;;;;;15.40;9.23;;;;;;;;;;4997645;28;20037;-73
2021/12/25 01:50:11;;;;;;;15.18;8.77;;;;;;;;;;4994554;28;20034;-72
2021/12/25 01:52:37;;;;;;;12.98;8.07;;;;;;;;;;4993501;28;20134;-72
2021/12/25 01:55:08;;;;;;;12.02;7.38;;;;;;;;;;4993449;28;20050;-73
2021/12/25 01:57:34;;;;;;;10.98;6.68;;;;;;;;;;4993278;28;20503;-72
2021/12/25 02:00:01;;;;;;;12.10;7.88;;;;;;;;;;4992889;28;20034;-72
2021/12/25 02:02:27;;;;;;;11.40;7.13;;;;;;;;;;4990820;28;20042;-72
2021/12/25 02:04:53;;;;;;;13.25;8.23;;;;;;;;;;4992842;28;20057;-72
2021/12/25 02:07:19;;;;;;;13.38;7.95;;;;;;;;;;4992703;28;20476;-71
2021/12/25 02:09:45;;;;;;;12.18;7.40;;;;;;;;;;4992932;28;20046;-71
2021/12/25 02:12:12;;;;;;;11.27;7.38;;;;;;;;;;4991397;28;20046;-72
2021/12/25 02:14:40;;;;;;;13.60;7.88;;;;;;;;;;4992908;28;20057;-72
2021/12/25 02:17:35;;;;;;;13.07;8.57;;;;;;;;;;4992675;28;20046;-72
2021/12/25 02:20:13;;;;;;;13.23;8.05;;;;;;;;;;4991061;28;20058;-72
2021/12/25 02:22:40;;;;;;;14.13;7.95;;;;;;;;;;4992547;28;20042;-72
2021/12/25 02:25:06;;;;;;;13.25;8.07;;;;;;;;;;4992605;28;20030;-72
2021/12/25 02:27:32;;;;;;;15.45;8.63;;;;;;;;;;4992530;28;20488;-72
2021/12/25 02:29:58;;;;;;;12.13;7.15;;;;;;;;;;4992391;28;20048;-72
2021/12/25 02:32:24;;;;;;;12.70;7.80;;;;;;;;;;4993658;28;20053;-72
2021/12/25 02:34:50;;;;;;;13.80;8.45;;;;;;;;;;5000929;28;20046;-71
2021/12/25 02:37:16;;;;;;;15.05;8.63;;;;;;;;;;5000860;28;20045;-71
2021/12/25 02:39:42;;;;;;;12.93;8.15;;;;;;;;;;4998565;28;20456;-71
2021/12/25 02:42:08;;;;;;;16.25;9.30;;;;;;;;;;5002650;28;20037;-70
2021/12/25 02:44:34;;;;;;;14.00;8.52;;;;;;;;;;5016994;28;20049;-72
2021/12/25 02:47:09;;;;;;;13.95;8.48;;;;;;;;;;5019786;28;20021;-71
2021/12/25 02:49:36;;;;;;;13.90;8.60;;;;;;;;;;5019801;28;20060;-72
2021/12/25 02:52:05;;;;;;;11.15;7.38;;;;;;;;;;5019142;28;20026;-71
2021/12/25 02:54:31;;;;;;;13.85;8.13;;;;;;;;;;5015131;28;20041;-71
2021/12/25 02:56:57;;;;;;;15.15;7.88;;;;;;;;;;5020920;28;20109;-72
2021/12/25 02:59:23;;;;;;;15.45;8.45;;;;;;;;;;5019980;28;20156;-71
2021/12/25 03:01:49;;;;;;;15.43;8.63;;;;;;;;;;5018793;28;20065;-71
2021/12/25 03:04:15;;;;;;;14.13;7.85;;;;;;;;;;5018653;28;20115;-71
2021/12/25 03:06:40;;;;;;;15.25;8.40;;;;;;;;;;5019928;28;20053;-72
2021/12/25 03:09:07;;;;;;;14.98;9.32;;;;;;;;;;5016452;28;20030;-72
2021/12/25 03:11:33;;;;;;;14.82;9.13;;;;;;;;;;5011808;28;20038;-71
2021/12/25 03:14:11;;;;;;;18.27;9.43;;;;;;;;;;5012123;28;20046;-72
2021/12/25 03:16:39;;;;;;;18.05;9.23;;;;;;;;;;5011787;28;20037;-71
2021/12/25 03:19:08;;;;;;;17.60;9.57;;;;;;;;;;5011537;28;20049;-72
2021/12/25 03:21:34;;;;;;;21.25;10.40;;;;;;;;;;5011961;28;20152;-71
2021/12/25 03:24:00;;;;;;;15.52;9.38;;;;;;;;;;5011396;28;20046;-72
2021/12/25 03:26:26;;;;;;;17.30;9.48;;;;;;;;;;5010150;28;20069;-71
2021/12/25 03:28:53;;;;;;;17.92;9.57;;;;;;;;;;5011375;28;20128;-71
2021/12/25 03:31:21;;;;;;;20.02;10.98;;;;;;;;;;5011541;28;20049;-71
2021/12/25 03:33:53;;;;;;;19.30;10.52;;;;;;;;;;5008157;28;20053;-72
2021/12/25 03:36:20;;;;;;;19.27;11.48;;;;;;;;;;5011070;28;20388;-72
2021/12/25 03:38:46;;;;;;;19.17;11.13;;;;;;;;;;5009953;28;20069;-72
2021/12/25 03:41:14;;;;;;;20.35;11.55;;;;;;;;;;5010053;28;20037;-72
2021/12/25 03:43:41;;;;;;;18.67;11.25;;;;;;;;;;5009758;28;20420;-72
2021/12/25 03:46:10;;;;;;;22.60;12.18;;;;;;;;;;5011131;28;20396;-72
2021/12/25 03:59:07;;;;;;;16.98;10.30;;;;;;;;;;5010999;28;20041;-72
2021/12/25 04:04:14;;;;;;;17.05;10.50;;;;;;;;;;5010243;28;20053;-72
2021/12/25 04:06:52;;;;;;;17.85;10.50;;;;;;;;;;5010490;28;20068;-72
2021/12/25 04:09:38;;;;;;;19.17;11.18;;;;;;;;;;5010495;28;20053;-72
2021/12/25 04:12:10;;;;;;;19.33;11.35;;;;;;;;;;5010699;28;20487;-72
2021/12/25 04:14:36;;;;;;;20.88;11.15;;;;;;;;;;5008780;28;20034;-72
2021/12/25 04:17:02;;;;;;;18.20;10.80;;;;;;;;;;5010116;28;20038;-72
2021/12/25 04:19:29;;;;;;;19.77;10.35;;;;;;;;;;5010247;28;20049;-72
2021/12/25 04:22:02;;;;;;;19.02;10.60;;;;;;;;;;5010469;28;20046;-72
2021/12/25 04:24:32;;;;;;;21.02;11.73;;;;;;;;;;5011032;28;20484;-72
2021/12/25 04:26:59;;;;;;;25.13;11.45;;;;;;;;;;5014182;28;20145;-72
2021/12/25 05:04:22;;;;;;;21.90;12.90;;;;;;;;;;5016545;28;20059;-72
2021/12/25 05:06:48;;;;;;;23.05;12.10;;;;;;;;;;5014202;28;20049;-72
2021/12/25 05:09:15;;;;;;;19.88;12.05;;;;;;;;;;5013912;28;20408;-71
2021/12/25 05:11:41;;;;;;;20.13;11.75;;;;;;;;;;5013936;28;20122;-72
2021/12/25 05:14:07;;;;;;;18.60;11.32;;;;;;;;;;5013813;28;20034;-72
2021/12/25 05:16:33;;;;;;;19.30;11.13;;;;;;;;;;5012613;28;20033;-72
2021/12/25 05:18:59;;;;;;;20.65;11.90;;;;;;;;;;5014241;28;20086;-72
2021/12/25 05:21:25;;;;;;;17.75;11.32;;;;;;;;;;5013911;28;20122;-72
2021/12/25 05:23:51;;;;;;;20.40;12.15;;;;;;;;;;5012093;28;20049;-72
2021/12/25 05:26:17;;;;;;;18.98;12.15;;;;;;;;;;5012322;28;20042;-72
2021/12/25 05:28:46;;;;;;;21.95;12.75;;;;;;;;;;5013351;28;20447;-72
2021/12/25 05:31:14;;;;;;;25.92;14.38;;;;;;;;;;5013853;28;20025;-71
2021/12/25 05:33:43;;;;;;;26.55;14.52;;;;;;;;;;5013786;28;20042;-72
2021/12/25 05:36:13;;;;;;;26.50;14.68;;;;;;;;;;5012703;28;20480;-72
2021/12/25 05:38:45;;;;;;;26.50;14.77;;;;;;;;;;5013650;28;20037;-72
2021/12/25 05:41:12;;;;;;;25.23;13.90;;;;;;;;;;5013904;28;20476;-72
2021/12/25 05:43:38;;;;;;;28.15;14.73;;;;;;;;;;5013131;28;20041;-73
2021/12/25 05:46:04;;;;;;;23.67;14.05;;;;;;;;;;5013227;28;20507;-72
2021/12/25 05:48:35;;;;;;;29.77;15.10;;;;;;;;;;5011228;28;20037;-72
2021/12/25 05:51:05;;;;;;;32.08;16.73;;;;;;;;;;5013299;28;20045;-72
2021/12/25 05:53:32;;;;;;;29.60;15.63;;;;;;;;;;5013073;28;20034;-72
2021/12/25 05:55:58;;;;;;;33.35;15.93;;;;;;;;;;5013138;28;20046;-72
2021/12/25 05:58:24;;;;;;;32.95;15.75;;;;;;;;;;5013074;28;20032;-71
2021/12/25 06:00:51;;;;;;;32.40;15.88;;;;;;;;;;5012818;28;20541;-72
2021/12/25 06:03:17;;;;;;;33.03;15.40;;;;;;;;;;5011404;28;20400;-72
2021/12/25 06:05:43;;;;;;;34.90;16.55;;;;;;;;;;5011359;28;20042;-72
2021/12/25 06:08:09;;;;;;;34.22;16.38;;;;;;;;;;5013066;28;20042;-72
2021/12/25 06:10:35;;;;;;;36.47;16.33;;;;;;;;;;5013060;28;20252;-72
2021/12/25 06:13:04;;;;;;;33.28;15.65;;;;;;;;;;5012556;28;20073;-72
2021/12/25 06:15:30;;;;;;;30.73;15.27;;;;;;;;;;5013080;28;20041;-72
2021/12/25 06:17:56;;;;;;;31.13;15.52;;;;;;;;;;5012950;28;20459;-72
2021/12/25 06:20:22;;;;;;;29.25;15.27;;;;;;;;;;5013076;28;20064;-72
2021/12/25 06:22:48;;;;;;;34.88;15.60;;;;;;;;;;5012814;28;20225;-74
2021/12/25 06:25:14;;;;;;;34.55;16.63;;;;;;;;;;5011775;28;20077;-72
2021/12/25 06:27:40;;;;;;;28.40;15.02;;;;;;;;;;5010849;28;20034;-72
2021/12/25 06:30:07;;;;;;;31.58;13.48;;;;;;;;;;5012379;28;20038;-73
2021/12/25 06:32:33;;;;;;;32.17;13.73;;;;;;;;;;5012391;28;20032;-71
2021/12/25 06:34:59;;;;;;;26.25;13.18;;;;;;;;;;5011108;28;20040;-72
2021/12/25 06:37:26;;;;;;;24.80;12.48;;;;;;;;;;5012333;28;20451;-74
2021/12/25 06:39:52;;;;;;;21.88;11.20;;;;;;;;;;5011803;28;20025;-74
2021/12/25 06:42:18;;;;;;;24.00;11.90;;;;;;;;;;5012275;28;20045;-72
2021/12/25 06:44:44;;;;;;;21.20;11.07;;;;;;;;;;5010809;28;20038;-72
2021/12/25 06:47:10;;;;;;;23.15;10.85;;;;;;;;;;5011746;28;20401;-72
2021/12/25 06:49:37;;;;;;;22.70;11.07;;;;;;;;;;5012166;28;20380;-72
2021/12/25 06:52:03;;;;;;;22.15;11.55;;;;;;;;;;5012323;28;20045;-72
2021/12/25 06:54:29;;;;;;;20.30;9.55;;;;;;;;;;5011721;28;20506;-72
2021/12/25 06:56:55;;;;;;;19.08;9.52;;;;;;;;;;5012120;28;20061;-74
2021/12/25 06:59:23;;;;;;;16.95;9.13;;;;;;;;;;5012162;28;20473;-73
2021/12/25 07:01:50;;;;;;;17.70;9.80;;;;;;;;;;5012175;28;20198;-72
2021/12/25 07:04:17;;;;;;;17.20;8.25;;;;;;;;;;5006439;23;20046;-74
2021/12/25 07:06:43;;;;;;;17.40;9.13;;;;;;;;;;4992790;28;20045;-72
2021/12/25 07:09:09;;;;;;;17.67;9.00;;;;;;;;;;4993087;28;20046;-72
2021/12/25 07:11:38;;;;;;;17.63;9.40;;;;;;;;;;4993102;28;20042;-74
2021/12/25 07:14:05;;;;;;;19.85;9.20;;;;;;;;;;4992770;28;20047;-74
2021/12/25 07:16:32;;;;;;;17.63;8.68;;;;;;;;;;4992201;28;20042;-74
2021/12/25 07:18:58;;;;;;;16.30;8.38;;;;;;;;;;4992705;28;20038;-74
2021/12/25 07:21:24;;;;;;;13.65;7.60;;;;;;;;;;4992267;28;20022;-74
2021/12/25 07:23:53;;;;;;;13.32;7.68;;;;;;;;;;4992376;28;20038;-73
2021/12/25 07:26:19;;;;;;;13.32;7.30;;;;;;;;;;4992193;28;20490;-74
2021/12/25 07:28:45;;;;;;;16.05;8.30;;;;;;;;;;4991893;28;20149;-74
2021/12/25 07:31:12;;;;;;;12.82;7.47;;;;;;;;;;4991605;28;20054;-74
2021/12/25 07:33:40;;;;;;;12.10;6.60;;;;;;;;;;4991591;28;20038;-74
2021/12/25 07:36:08;;;;;;;12.45;6.55;;;;;;;;;;4991619;28;20042;-74
2021/12/25 07:38:35;;;;;;;10.75;6.18;;;;;;;;;;4991750;28;20043;-74
2021/12/25 07:41:01;;;;;;;11.80;5.70;;;;;;;;;;4991972;28;20046;-73
2021/12/25 07:43:27;;;;;;;11.55;6.53;;;;;;;;;;4991706;28;20033;-74
2021/12/25 07:45:53;;;;;;;8.30;4.72;;;;;;;;;;4991572;28;20073;-74
2021/12/25 07:48:21;;;;;;;11.88;6.00;;;;;;;;;;4991200;28;20038;-74
2021/12/25 07:50:48;;;;;;;9.23;5.25;;;;;;;;;;4990290;28;20038;-74
2021/12/25 07:53:16;;;;;;;11.73;5.88;;;;;;;;;;4991664;28;20049;-74
2021/12/25 07:55:43;;;;;;;10.48;5.32;;;;;;;;;;4991943;28;20046;-74
2021/12/25 07:58:09;;;;;;;9.00;4.93;;;;;;;;;;4991153;28;20042;-74
2021/12/25 08:00:35;;;;;;;12.23;5.65;;;;;;;;;;4990791;28;20054;-74
2021/12/25 08:03:02;;;;;;;9.38;5.18;;;;;;;;;;4991308;28;20039;-74
2021/12/25 08:05:28;;;;;;;9.48;5.03;;;;;;;;;;4991428;28;20042;-74
2021/12/25 08:07:55;;;;;;;9.40;4.55;;;;;;;;;;4991744;28;20049;-74
2021/12/25 08:10:21;;;;;;;8.93;5.43;;;;;;;;;;4991472;28;20429;-74
2021/12/25 08:12:51;;;;;;;15.10;8.68;;;;;;;;;;4991375;28;20038;-74
2021/12/25 08:15:21;;;;;;;23.40;12.88;;;;;;;;;;4991855;28;20496;-74
2021/12/25 08:17:48;;;;;;;16.90;6.93;;;;;;;;;;4999802;28;20415;-74
2021/12/25 08:20:14;;;;;;;8.45;4.88;;;;;;;;;;5011464;28;20476;-74
2021/12/25 08:22:41;;;;;;;11.65;5.20;;;;;;;;;;5010936;28;20037;-74
2021/12/25 08:25:08;;;;;;;11.07;5.30;;;;;;;;;;5010839;28;20499;-74
2021/12/25 08:27:35;;;;;;;8.38;4.90;;;;;;;;;;5011199;28;20048;-74
2021/12/25 08:30:03;;;;;;;8.95;5.15;;;;;;;;;;5010976;28;20030;-74
2021/12/25 08:32:29;;;;;;;9.02;4.78;;;;;;;;;;5009508;28;20476;-74
2021/12/25 08:34:57;;;;;;;10.00;5.60;;;;;;;;;;5009848;28;20080;-74
2021/12/25 08:37:24;;;;;;;9.20;5.50;;;;;;;;;;5010972;28;20042;-74
2021/12/25 08:39:51;;;;;;;10.02;4.80;;;;;;;;;;5011158;28;20488;-74
2021/12/25 08:42:20;;;;;;;10.80;5.40;;;;;;;;;;5011042;28;20046;-74
2021/12/25 08:45:04;;;;;;;11.60;5.55;;;;;;;;;;5007587;28;20045;-73
2021/12/25 08:47:37;;;;;;;11.23;4.90;;;;;;;;;;5010909;28;20050;-73
2021/12/25 08:50:07;;;;;;;24.42;11.93;;;;;;;;;;5009026;28;20068;-73
2021/12/25 08:52:33;;;;;;;11.35;5.72;;;;;;;;;;5010670;28;20026;-74
2021/12/25 08:54:59;;;;;;;8.70;3.92;;;;;;;;;;5010774;28;20042;-73
2021/12/25 08:57:26;;;;;;;9.55;3.03;;;;;;;;;;4993140;28;20046;-73
2021/12/25 08:59:56;;;;;;;6.68;2.85;;;;;;;;;;5010726;28;20042;-73
2021/12/25 09:02:23;;;;;;;5.50;2.72;;;;;;;;;;5010571;28;20034;-73
2021/12/25 09:04:51;;;;;;;8.00;2.88;;;;;;;;;;5010786;28;20046;-73
2021/12/25 09:07:18;;;;;;;6.22;2.95;;;;;;;;;;5009780;28;20038;-74
2021/12/25 09:09:44;;;;;;;6.80;2.72;;;;;;;;;;5010803;28;20465;-73
2021/12/25 09:12:14;;;;;;;5.75;2.85;;;;;;;;;;5014034;28;20037;-73
2021/12/25 09:14:40;;;;;;;4.95;2.65;;;;;;;;;;5014500;28;20479;-73
2021/12/25 09:17:10;;;;;;;7.32;2.70;;;;;;;;;;5014300;28;20060;-73
2021/12/25 09:19:42;;;;;;;4.95;2.60;;;;;;;;;;5014144;28;20041;-72
2021/12/25 09:22:18;;;;;;;6.20;2.60;;;;;;;;;;5014214;28;20037;-73
2021/12/25 09:24:44;;;;;;;7.03;2.67;;;;;;;;;;5012698;28;20045;-74
2021/12/25 09:27:10;;;;;;;9.02;2.92;;;;;;;;;;5014074;28;20038;-73
2021/12/25 09:29:36;;;;;;;12.65;2.67;;;;;;;;;;5013530;28;20033;-73
2021/12/25 09:32:03;;;;;;;6.05;2.80;;;;;;;;;;4994793;28;20129;-72
2021/12/25 09:34:29;;;;;;;5.93;2.65;;;;;;;;;;4993727;28;20069;-73
2021/12/25 09:36:55;;;;;;;5.40;2.53;;;;;;;;;;4993908;28;20480;-72
2021/12/25 09:39:21;;;;;;;6.72;3.00;;;;;;;;;;4994044;28;20584;-73
2021/12/25 09:41:47;;;;;;;12.27;3.03;;;;;;;;;;4994040;28;20050;-74
2021/12/25 09:44:13;;;;;;;6.18;3.30;;;;;;;;;;4992195;28;20054;-71
2021/12/25 09:46:42;;;;;;;6.25;2.90;;;;;;;;;;4993567;28;20081;-72
2021/12/25 09:49:09;;;;;;;8.50;3.08;;;;;;;;;;4994152;28;20038;-74
2021/12/25 09:51:35;;;;;;;11.68;6.18;;;;;;;;;;4993872;28;20038;-73
2021/12/25 09:54:06;;;;;;;9.80;4.57;;;;;;;;;;4993869;28;20066;-74
2021/12/25 09:56:34;;;;;;;5.13;2.40;;;;;;;;;;4993609;28;20049;-74
2021/12/25 09:59:03;;;;;;;4.45;2.00;;;;;;;;;;4993189;28;20645;-73
2021/12/25 10:01:46;;;;;;;2.55;1.80;;;;;;;;;;4993450;28;20049;-73
2021/12/25 10:04:29;;;;;;;4.25;2.40;;;;;;;;;;4992768;28;20057;-73
2021/12/25 10:06:55;;;;;;;7.00;1.90;;;;;;;;;;4993022;28;20046;-73
2021/12/25 10:09:24;;;;;;;3.45;1.88;;;;;;;;;;5000275;28;20045;-72
2021/12/25 10:12:16;;;;;;;4.65;2.35;;;;;;;;;;5012743;28;20387;-73
2021/12/25 10:14:50;;;;;;;4.50;2.03;;;;;;;;;;5010664;28;20046;-73
2021/12/25 10:17:19;;;;;;;4.93;2.15;;;;;;;;;;5011209;28;20046;-73
2021/12/25 10:20:12;;;;;;;4.20;2.08;;;;;;;;;;5012128;28;20395;-73
2021/12/25 10:23:09;;;;;;;5.10;2.00;;;;;;;;;;5009873;28;20045;-74
2021/12/25 10:25:49;;;;;;;4.93;2.13;;;;;;;;;;5012667;28;20048;-73
2021/12/25 10:28:22;;;;;;;4.30;2.10;;;;;;;;;;5011358;28;20053;-73
2021/12/25 10:31:01;;;;;;;3.88;2.10;;;;;;;;;;5011436;28;20053;-72
2021/12/25 10:33:44;;;;;;;3.65;2.22;;;;;;;;;;5012914;28;20045;-73
2021/12/25 10:36:25;;;;;;;4.57;2.50;;;;;;;;;;5012565;28;20044;-72
2021/12/25 10:39:08;;;;;;;3.80;2.08;;;;;;;;;;5012374;28;20045;-72
2021/12/25 10:41:40;;;;;;;4.72;2.22;;;;;;;;;;5012571;28;20049;-74
2021/12/25 10:44:33;;;;;;;9.55;5.03;;;;;;;;;;5009049;28;20045;-74
2021/12/25 10:47:06;;;;;;;5.75;2.58;;;;;;;;;;5012568;28;20616;-73
2021/12/25 10:49:35;;;;;;;4.07;2.35;;;;;;;;;;5011872;28;20049;-75
2021/12/25 10:52:12;;;;;;;4.15;2.38;;;;;;;;;;5011941;28;20029;-74
2021/12/25 10:54:43;;;;;;;5.03;2.40;;;;;;;;;;5012087;28;20444;-73
2021/12/25 10:57:09;;;;;;;;;;;;;;;;;;5012367;28;20049;-73
2021/12/25 10:59:46;;;;;;;5.10;2.80;;;;;;;;;;5011828;28;19935;-74
2021/12/25 11:02:30;;;;;;;5.47;2.20;;;;;;;;;;5011789;28;20026;-73
2021/12/25 11:04:57;;;;;;;3.47;2.03;;;;;;;;;;5010093;28;20159;-73
2021/12/25 11:07:27;;;;;;;5.03;2.47;;;;;;;;;;5011950;28;20045;-74
2021/12/25 11:10:08;;;;;;;5.77;2.73;;;;;;;;;;5011953;28;20044;-73
2021/12/25 11:12:38;;;;;;;4.00;2.53;;;;;;;;;;5011903;28;20531;-74
2021/12/25 11:15:14;;;;;;;7.30;3.63;;;;;;;;;;5011572;28;20042;-73
2021/12/25 11:17:50;;;;;;;6.25;3.13;;;;;;;;;;5011885;28;20061;-74
2021/12/25 11:20:23;;;;;;;11.82;6.55;;;;;;;;;;5011670;28;20042;-74
2021/12/25 11:22:52;;;;;;;5.43;2.92;;;;;;;;;;4995504;28;20049;-73
2021/12/25 11:25:25;;;;;;;4.78;2.78;;;;;;;;;;4994067;28;20039;-74
2021/12/25 11:27:52;;;;;;;5.15;2.83;;;;;;;;;;4995001;28;20046;-73
2021/12/25 11:30:22;;;;;;;5.00;2.90;;;;;;;;;;4994057;28;20034;-72
2021/12/25 11:32:50;;;;;;;5.17;3.23;;;;;;;;;;4993708;28;20052;-73
2021/12/25 11:35:19;;;;;;;7.80;4.32;;;;;;;;;;4991729;28;20042;-73
2021/12/25 11:37:48;;;;;;;6.25;3.22;;;;;;;;;;4992068;28;20057;-73
2021/12/25 11:40:18;;;;;;;5.82;3.05;;;;;;;;;;4993312;28;20046;-72
2021/12/25 11:42:52;;;;;;;4.38;2.50;;;;;;;;;;4993628;28;20038;-73
2021/12/25 11:45:26;;;;;;;7.28;3.65;;;;;;;;;;4994198;28;20042;-73
2021/12/25 11:47:55;;;;;;;6.40;3.25;;;;;;;;;;4994830;28;20049;-73
2021/12/25 11:50:33;;;;;;;9.32;5.07;;;;;;;;;;4996789;28;20038;-73
2021/12/25 11:53:31;;;;;;;5.78;3.13;;;;;;;;;;4999304;28;20042;-73
2021/12/25 11:56:25;;;;;;;5.63;3.00;;;;;;;;;;4999071;28;20035;-72
2021/12/25 11:58:53;;;;;;;6.78;3.65;;;;;;;;;;4997904;28;20026;-72
2021/12/25 12:01:23;;;;;;;6.35;3.70;;;;;;;;;;4998970;28;20038;-73
2021/12/25 12:04:13;;;;;;;5.50;3.20;;;;;;;;;;4993800;28;20393;-73
2021/12/25 12:06:56;;;;;;;6.00;3.30;;;;;;;;;;4994807;28;20042;-73
2021/12/25 12:09:34;;;;;;;6.78;3.67;;;;;;;;;;4990674;28;20030;-73
2021/12/25 12:12:03;;;;;;;5.72;3.58;;;;;;;;;;4991992;28;20035;-73
2021/12/25 12:14:30;;;;;;;5.45;3.50;;;;;;;;;;4991825;28;20031;-73
2021/12/25 12:17:01;;;;;;;5.68;3.42;;;;;;;;;;4991692;28;20037;-73
2021/12/25 12:19:30;;;;;;;5.65;3.30;;;;;;;;;;4991682;28;20042;-73
2021/12/25 12:22:49;;;;;;;17.15;9.45;;;;;;;;;;4990526;28;20062;-73
2021/12/25 12:28:17;;;;;;;5.50;3.28;;;;;;;;;;4995120;28;20058;-73
2021/12/25 12:30:46;;;;;;;5.25;3.30;;;;;;;;;;4991838;28;20420;-73
2021/12/25 12:33:14;;;;;;;7.10;3.72;;;;;;;;;;4990369;28;20080;-73
2021/12/25 12:35:43;;;;;;;5.32;3.30;;;;;;;;;;4999809;28;20046;-74
2021/12/25 12:38:42;;;;;;;9.48;3.78;;;;;;;;;;5011281;28;20037;-73
2021/12/25 12:41:26;;;;;;;8.60;3.88;;;;;;;;;;5011216;28;20046;-73
2021/12/25 12:43:57;;;;;;;7.40;3.72;;;;;;;;;;5011083;28;20500;-73
2021/12/25 12:46:44;;;;;;;7.10;3.47;;;;;;;;;;5011414;28;20054;-73
2021/12/25 12:49:10;;;;;;;6.50;3.55;;;;;;;;;;5013263;28;20030;-73
2021/12/25 12:51:36;;;;;;;7.65;3.90;;;;;;;;;;5014428;28;20053;-73
2021/12/25 12:54:02;;;;;;;7.50;3.88;;;;;;;;;;5012660;28;20051;-73
2021/12/25 12:56:29;;;;;;;6.07;3.70;;;;;;;;;;5014199;28;20052;-73
2021/12/25 12:58:56;;;;;;;6.85;3.67;;;;;;;;;;5014205;28;20034;-73
2021/12/25 13:01:25;;;;;;;6.57;4.18;;;;;;;;;;5013938;28;20042;-73
2021/12/25 13:03:59;;;;;;;9.75;4.97;;;;;;;;;;5013854;28;20046;-73
2021/12/25 13:06:29;;;;;;;7.97;4.75;;;;;;;;;;5014416;28;20653;-73
2021/12/25 13:09:04;;;;;;;6.90;4.00;;;;;;;;;;5013988;28;20034;-73
2021/12/25 13:11:38;;;;;;;6.65;4.13;;;;;;;;;;5014033;28;20587;-73
2021/12/25 13:14:05;;;;;;;7.03;4.40;;;;;;;;;;5014598;28;20535;-73
2021/12/25 13:16:41;;;;;;;7.28;4.30;;;;;;;;;;5002020;28;20041;-73
2021/12/25 13:19:09;;;;;;;7.28;4.57;;;;;;;;;;4994233;28;20050;-73
2021/12/25 13:21:39;;;;;;;22.88;11.93;;;;;;;;;;4994454;28;20034;-73
2021/12/25 13:24:15;;;;;;;11.70;5.50;;;;;;;;;;4994262;28;20049;-74
2021/12/25 13:26:47;;;;;;;7.60;4.50;;;;;;;;;;4993753;28;20039;-73
2021/12/25 13:29:19;;;;;;;7.03;4.18;;;;;;;;;;4993431;28;20046;-73
2021/12/25 13:31:48;;;;;;;7.40;4.28;;;;;;;;;;4993657;28;20042;-73
2021/12/25 13:34:21;;;;;;;5.70;3.65;;;;;;;;;;4992828;28;20046;-73
2021/12/25 13:36:53;;;;;;;6.85;4.25;;;;;;;;;;4993784;28;20041;-73
2021/12/25 13:39:25;;;;;;;6.80;4.32;;;;;;;;;;4994387;28;20050;-72
2021/12/25 13:42:05;;;;;;;8.52;4.38;;;;;;;;;;4994024;28;20057;-72
2021/12/25 13:44:33;;;;;;;6.65;3.78;;;;;;;;;;4993638;28;20392;-73
2021/12/25 13:46:59;;;;;;;6.65;3.92;;;;;;;;;;4994071;28;20034;-73
2021/12/25 13:49:34;;;;;;;8.15;4.60;;;;;;;;;;4993944;28;20043;-73
2021/12/25 13:52:20;;;;;;;9.32;5.20;;;;;;;;;;4993648;28;20026;-72
2021/12/25 13:55:20;;;;;;;9.63;4.68;;;;;;;;;;4993250;28;20038;-73
2021/12/25 13:57:55;;;;;;;7.60;4.68;;;;;;;;;;4999095;28;20034;-73
2021/12/25 14:00:27;;;;;;;10.18;4.03;;;;;;;;;;5013223;28;20412;-73
2021/12/25 14:02:57;;;;;;;8.23;4.80;;;;;;;;;;5012674;28;20034;-73
2021/12/25 14:05:29;;;;;;;9.30;4.68;;;;;;;;;;5012768;28;20531;-73
2021/12/25 14:07:54;;;;;;;;;;;;;;;;;;5013736;28;20042;-73
2021/12/25 14:10:28;;;;;;;7.13;4.30;;;;;;;;;;5012879;28;19909;-73
2021/12/25 14:12:57;;;;;;;7.45;4.07;;;;;;;;;;5009417;28;20054;-73
2021/12/25 14:15:30;;;;;;;7.28;4.25;;;;;;;;;;5010740;28;20026;-73
2021/12/25 14:17:57;;;;;;;8.98;4.43;;;;;;;;;;5002836;28;20041;-73
2021/12/25 14:20:28;;;;;;;8.27;4.20;;;;;;;;;;4991237;28;20551;-71
2021/12/25 14:23:12;;;;;;;9.30;4.50;;;;;;;;;;4991770;28;20213;-73
2021/12/25 14:25:59;;;;;;;7.30;3.88;;;;;;;;;;4991822;28;20049;-74
2021/12/25 14:28:33;;;;;;;8.60;5.18;;;;;;;;;;4995996;28;20038;-74
2021/12/25 14:31:14;;;;;;;9.13;5.15;;;;;;;;;;4985856;28;20045;-73
2021/12/25 14:34:04;;;;;;;9.20;4.90;;;;;;;;;;4974569;28;20035;-73
2021/12/25 14:36:37;;;;;;;8.30;4.57;;;;;;;;;;4985696;28;20046;-74
2021/12/25 14:39:05;;;;;;;8.10;4.68;;;;;;;;;;4989665;28;20473;-74
2021/12/25 14:41:37;;;;;;;8.18;4.40;;;;;;;;;;4987047;28;20037;-74
2021/12/25 14:44:18;;;;;;;8.52;4.28;;;;;;;;;;4989960;28;20034;-74
2021/12/25 14:46:45;;;;;;;8.45;5.85;;;;;;;;;;4990507;28;20046;-73
2021/12/25 14:49:11;;;;;;;10.48;6.80;;;;;;;;;;4992228;28;20038;-74
2021/12/25 14:51:42;;;;;;;13.82;10.02;;;;;;;;;;4992600;28;20042;-75
2021/12/25 14:54:08;;;;;;;8.38;5.18;;;;;;;;;;4989383;28;20057;-74
2021/12/25 14:56:41;;;;;;;8.52;4.88;;;;;;;;;;4999926;22;20054;-74
2021/12/25 14:59:39;;;;;;;10.80;7.60;;;;;;;;;;4993062;28;20042;-74
2021/12/25 15:02:19;;;;;;;10.75;6.00;;;;;;;;;;4994813;28;20509;-72
2021/12/25 15:04:49;;;;;;;8.80;5.68;;;;;;;;;;4992337;28;20477;-72
2021/12/25 15:07:16;;;;;;;10.45;5.95;;;;;;;;;;4991307;28;20053;-73
2021/12/25 15:09:53;;;;;;;14.60;9.55;;;;;;;;;;4990301;28;20046;-74
2021/12/25 15:12:21;;;;;;;11.43;6.20;;;;;;;;;;4990940;28;20038;-76
2021/12/25 15:15:02;;;;;;;7.85;4.68;;;;;;;;;;4996677;28;20049;-83
2021/12/25 15:17:31;;;;;;;9.73;6.05;;;;;;;;;;4991759;28;20030;-83
2021/12/25 15:20:07;;;;;;;9.90;5.25;;;;;;;;;;4993679;28;20369;-82
2021/12/25 15:22:33;;;;;;;7.88;4.50;;;;;;;;;;4992774;28;20041;-83
2021/12/25 15:25:26;;;;;;;7.10;4.60;;;;;;;;;;4993796;28;20076;-82
2021/12/25 15:27:57;;;;;;;7.32;4.50;;;;;;;;;;5001284;28;20050;-83
2021/12/25 15:30:28;;;;;;;11.70;7.07;;;;;;;;;;5004651;28;20400;-83
2021/12/25 15:32:57;;;;;;;;;;;;;;;;;;5005909;28;20039;-80
2021/12/25 15:35:44;;;;;;;8.13;4.93;;;;;;;;;;4992142;28;19922;-80
2021/12/25 15:38:22;;;;;;;9.25;5.70;;;;;;;;;;4990282;28;20026;-83
2021/12/25 15:40:49;;;;;;;8.45;5.47;;;;;;;;;;4992062;28;20042;-81
2021/12/25 15:43:17;;;;;;;9.93;4.90;;;;;;;;;;4990734;28;20030;-80
2021/12/25 15:45:42;;;;;;;9.75;5.22;;;;;;;;;;4991255;28;20039;-80
2021/12/25 15:48:08;;;;;;;8.98;5.80;;;;;;;;;;4992552;28;20054;-79
2021/12/25 15:50:44;;;;;;;10.48;5.15;;;;;;;;;;4994872;28;20104;-78
2021/12/25 15:53:09;;;;;;;9.20;4.78;;;;;;;;;;4992439;28;20026;-80
2021/12/25 15:55:37;;;;;;;10.10;5.85;;;;;;;;;;4993131;28;20038;-79
2021/12/25 15:58:07;;;;;;;11.73;5.50;;;;;;;;;;5006361;28;20054;-78
2021/12/25 16:00:42;;;;;;;8.00;5.47;;;;;;;;;;4992153;28;20372;-78
2021/12/25 16:03:08;;;;;;;9.02;5.85;;;;;;;;;;4991323;28;20045;-79
2021/12/25 16:05:34;;;;;;;10.23;5.70;;;;;;;;;;4991395;28;20404;-78
2021/12/25 16:08:01;;;;;;;12.05;5.65;;;;;;;;;;4991428;28;20062;-78
2021/12/25 16:10:39;;;;;;;10.93;5.70;;;;;;;;;;4974116;28;20405;-80